createdAt,value
2024-02-28T00:00:09.091Z,46.24
2024-02-28T00:01:09.155Z,46.16
2024-02-28T00:02:09.211Z,46.21
2024-02-28T00:03:09.341Z,46.22
2024-02-28T00:04:09.351Z,46.18
2024-02-28T00:05:09.437Z,46.18
2024-02-28T00:06:09.534Z,46.13
2024-02-28T00:07:09.604Z,46.15
2024-02-28T00:08:09.689Z,46.17
2024-02-28T00:09:09.832Z,46.19
2024-02-28T00:10:09.818Z,46.17
2024-02-28T00:11:10.025Z,46.15
2024-02-28T00:12:10.090Z,46.18
2024-02-28T00:13:10.107Z,46.22
2024-02-28T00:14:10.167Z,46.21
2024-02-28T00:15:10.278Z,46.22
2024-02-28T00:16:10.310Z,46.20
2024-02-28T00:17:10.408Z,46.20
2024-02-28T00:18:10.546Z,46.19
2024-02-28T00:19:10.588Z,46.21
2024-02-28T00:20:10.695Z,46.21
2024-02-28T00:21:10.698Z,46.21
2024-02-28T00:22:10.798Z,46.25
2024-02-28T00:23:10.899Z,46.22
2024-02-28T00:24:11.157Z,46.20
2024-02-28T00:25:11.069Z,46.23
2024-02-28T00:26:11.132Z,46.21
2024-02-28T00:27:11.237Z,46.23
2024-02-28T00:28:11.290Z,46.22
2024-02-28T00:29:11.378Z,46.24
2024-02-28T00:30:11.527Z,46.18
2024-02-28T00:31:11.549Z,46.16
2024-02-28T00:32:11.625Z,46.18
2024-02-28T00:33:11.802Z,46.19
2024-02-28T00:34:11.780Z,46.24
2024-02-28T00:35:11.851Z,46.25
2024-02-28T00:36:11.944Z,46.19
2024-02-28T00:37:12.079Z,46.19
2024-02-28T00:38:12.096Z,46.19
2024-02-28T00:39:12.175Z,46.17
2024-02-28T00:40:12.253Z,46.19
2024-02-28T00:41:12.311Z,46.22
2024-02-28T00:42:12.433Z,46.18
2024-02-28T00:43:12.453Z,46.20
2024-02-28T00:44:12.542Z,46.23
2024-02-28T00:45:12.644Z,46.22
2024-02-28T00:46:12.692Z,46.21
2024-02-28T00:47:12.796Z,46.20
2024-02-28T00:48:12.938Z,46.18
2024-02-28T00:49:12.928Z,46.19
2024-02-28T00:50:13.005Z,46.16
2024-02-28T00:51:13.116Z,46.14
2024-02-28T00:52:13.190Z,46.17
2024-02-28T00:53:13.292Z,46.18
2024-02-28T00:54:13.360Z,46.14
2024-02-28T00:55:20.041Z,46.13
2024-02-28T00:56:13.470Z,46.20
2024-02-28T00:57:14.256Z,46.21
2024-02-28T00:58:13.623Z,46.22
2024-02-28T00:59:13.729Z,46.17
2024-02-28T01:00:13.865Z,46.16
2024-02-28T01:01:14.012Z,46.21
2024-02-28T01:02:13.972Z,46.18
2024-02-28T01:03:14.075Z,46.20
2024-02-28T01:04:14.152Z,46.20
2024-02-28T01:05:14.212Z,46.20
2024-02-28T01:06:14.353Z,46.17
2024-02-28T01:07:14.362Z,46.20
2024-02-28T01:08:14.456Z,46.15
2024-02-28T01:09:14.603Z,46.12
2024-02-28T01:10:14.687Z,46.18
2024-02-28T01:11:14.762Z,46.18
2024-02-28T01:12:14.812Z,46.17
2024-02-28T01:13:14.902Z,46.16
2024-02-28T01:14:14.944Z,46.14
2024-02-28T01:15:15.070Z,46.16
2024-02-28T01:16:15.111Z,46.16
2024-02-28T01:17:15.183Z,46.14
2024-02-28T01:18:15.315Z,46.15
2024-02-28T01:19:15.381Z,46.16
2024-02-28T01:20:15.462Z,46.13
2024-02-28T01:21:15.585Z,46.15
2024-02-28T01:22:15.640Z,46.14
2024-02-28T01:23:15.702Z,46.19
2024-02-28T01:24:15.853Z,46.18
2024-02-28T01:25:15.894Z,46.17
2024-02-28T01:26:16.020Z,46.18
2024-02-28T01:27:16.069Z,46.18
2024-02-28T01:28:16.125Z,46.16
2024-02-28T01:29:16.195Z,46.13
2024-02-28T01:30:16.278Z,46.18
2024-02-28T01:31:16.341Z,46.15
2024-02-28T01:32:16.447Z,46.13
2024-02-28T01:33:16.533Z,46.11
2024-02-28T01:34:16.636Z,46.11
2024-02-28T01:35:16.703Z,46.13
2024-02-28T01:36:16.804Z,46.12
2024-02-28T01:37:16.875Z,46.13
2024-02-28T01:38:16.960Z,46.13
2024-02-28T01:39:17.082Z,46.11
2024-02-28T01:40:17.093Z,46.14
2024-02-28T01:41:17.183Z,46.12
2024-02-28T01:42:17.304Z,46.14
2024-02-28T01:43:17.355Z,46.12
2024-02-28T01:44:17.439Z,46.18
2024-02-28T01:45:17.567Z,46.12
2024-02-28T01:46:17.590Z,46.15
2024-02-28T01:47:17.683Z,46.09
2024-02-28T01:48:17.878Z,46.13
2024-02-28T01:49:17.885Z,46.11
2024-02-28T01:50:17.978Z,46.15
2024-02-28T01:51:18.059Z,46.10
2024-02-28T01:52:18.133Z,46.12
2024-02-28T01:53:20.066Z,46.13
2024-02-28T01:54:18.312Z,46.18
2024-02-28T01:55:18.485Z,46.20
2024-02-28T01:56:18.477Z,46.18
2024-02-28T01:57:18.536Z,46.18
2024-02-28T01:58:18.591Z,46.12
2024-02-28T01:59:18.676Z,46.14
2024-02-28T02:00:18.876Z,46.13
2024-02-28T02:01:19.075Z,46.13
2024-02-28T02:02:18.959Z,46.17
2024-02-28T02:03:19.138Z,46.15
2024-02-28T02:04:19.108Z,46.14
2024-02-28T02:05:19.222Z,46.12
2024-02-28T02:06:19.346Z,46.12
2024-02-28T02:07:19.392Z,46.13
2024-02-28T02:08:19.498Z,46.11
2024-02-28T02:09:19.566Z,46.15
2024-02-28T02:10:19.603Z,46.12
2024-02-28T02:11:19.756Z,46.04
2024-02-28T02:12:19.820Z,46.11
2024-02-28T02:13:19.878Z,46.11
2024-02-28T02:14:19.984Z,46.06
2024-02-28T02:15:20.089Z,46.07
2024-02-28T02:16:20.169Z,46.09
2024-02-28T02:17:20.303Z,46.10
2024-02-28T02:18:20.420Z,46.10
2024-02-28T02:19:20.475Z,46.12
2024-02-28T02:20:20.535Z,46.07
2024-02-28T02:21:20.582Z,46.08
2024-02-28T02:22:20.660Z,46.09
2024-02-28T02:23:20.760Z,46.08
2024-02-28T02:24:20.881Z,46.08
2024-02-28T02:25:20.912Z,46.10
2024-02-28T02:26:21.033Z,46.08
2024-02-28T02:27:21.117Z,46.03
2024-02-28T02:28:21.184Z,46.07
2024-02-28T02:29:21.247Z,46.10
2024-02-28T02:30:21.378Z,46.10
2024-02-28T02:31:21.404Z,46.06
2024-02-28T02:32:21.481Z,46.04
2024-02-28T02:33:21.548Z,46.11
2024-02-28T02:34:21.640Z,46.12
2024-02-28T02:35:21.748Z,46.07
2024-02-28T02:36:21.828Z,46.03
2024-02-28T02:37:21.893Z,46.08
2024-02-28T02:38:21.961Z,46.08
2024-02-28T02:39:22.075Z,46.09
2024-02-28T02:40:22.117Z,46.08
2024-02-28T02:41:22.183Z,46.09
2024-02-28T02:42:22.288Z,46.03
2024-02-28T02:43:22.349Z,46.09
2024-02-28T02:44:22.457Z,46.09
2024-02-28T02:45:22.589Z,46.06
2024-02-28T02:46:22.652Z,46.06
2024-02-28T02:47:22.758Z,46.07
2024-02-28T02:48:22.832Z,46.09
2024-02-28T02:49:22.880Z,46.09
2024-02-28T02:50:22.969Z,46.10
2024-02-28T02:51:23.033Z,46.01
2024-02-28T02:52:23.100Z,46.08
2024-02-28T02:53:23.161Z,46.05
2024-02-28T02:54:23.280Z,46.03
2024-02-28T02:55:23.353Z,46.06
2024-02-28T02:56:23.438Z,46.08
2024-02-28T02:57:23.507Z,46.10
2024-02-28T02:58:23.629Z,46.03
2024-02-28T02:59:23.670Z,46.05
2024-02-28T03:00:23.795Z,46.01
2024-02-28T03:01:23.922Z,46.08
2024-02-28T03:02:23.920Z,46.05
2024-02-28T03:03:24.025Z,46.04
2024-02-28T03:04:24.106Z,46.02
2024-02-28T03:05:24.189Z,46.07
2024-02-28T03:06:24.301Z,46.07
2024-02-28T03:07:24.349Z,46.08
2024-02-28T03:08:24.423Z,46.12
2024-02-28T03:09:24.518Z,46.09
2024-02-28T03:10:24.589Z,46.09
2024-02-28T03:11:24.720Z,46.13
2024-02-28T03:12:24.805Z,46.07
2024-02-28T03:13:24.799Z,46.10
2024-02-28T03:14:24.883Z,46.07
2024-02-28T03:15:25.049Z,46.04
2024-02-28T03:16:25.059Z,46.01
2024-02-28T03:17:25.165Z,45.97
2024-02-28T03:18:25.257Z,45.99
2024-02-28T03:19:25.310Z,46.02
2024-02-28T03:20:25.400Z,45.98
2024-02-28T03:21:25.495Z,45.99
2024-02-28T03:22:25.547Z,46.02
2024-02-28T03:23:25.663Z,46.04
2024-02-28T03:24:25.744Z,45.97
2024-02-28T03:25:25.807Z,45.97
2024-02-28T03:26:25.856Z,46.04
2024-02-28T03:27:25.998Z,45.99
2024-02-28T03:28:26.078Z,46.09
2024-02-28T03:29:26.105Z,46.13
2024-02-28T03:30:26.233Z,46.08
2024-02-28T03:31:26.267Z,46.09
2024-02-28T03:32:26.350Z,46.04
2024-02-28T03:33:26.468Z,46.08
2024-02-28T03:34:26.521Z,46.08
2024-02-28T03:35:26.590Z,46.04
2024-02-28T03:36:26.685Z,46.05
2024-02-28T03:37:26.736Z,46.10
2024-02-28T03:38:26.811Z,46.08
2024-02-28T03:39:26.921Z,46.01
2024-02-28T03:40:27.003Z,45.98
2024-02-28T03:41:27.060Z,45.97
2024-02-28T03:42:27.179Z,45.95
2024-02-28T03:43:27.237Z,45.98
2024-02-28T03:44:27.431Z,46.05
2024-02-28T03:45:27.496Z,46.08
2024-02-28T03:46:27.511Z,46.09
2024-02-28T03:47:27.680Z,46.00
2024-02-28T03:48:27.701Z,45.93
2024-02-28T03:49:27.805Z,45.98
2024-02-28T03:50:27.860Z,45.98
2024-02-28T03:51:27.946Z,45.92
2024-02-28T03:52:28.022Z,45.98
2024-02-28T03:53:28.091Z,46.00
2024-02-28T03:54:28.188Z,45.98
2024-02-28T03:55:28.267Z,45.98
2024-02-28T03:56:28.319Z,45.95
2024-02-28T03:57:28.411Z,46.02
2024-02-28T03:58:28.490Z,45.95
2024-02-28T03:59:28.559Z,46.00
2024-02-28T04:00:28.679Z,46.01
2024-02-28T04:01:28.845Z,46.02
2024-02-28T04:02:28.795Z,45.95
2024-02-28T04:03:28.893Z,45.95
2024-02-28T04:04:28.941Z,45.98
2024-02-28T04:05:29.017Z,45.92
2024-02-28T04:06:29.359Z,45.94
2024-02-28T04:07:29.169Z,45.94
2024-02-28T04:08:29.278Z,45.99
2024-02-28T04:09:29.351Z,45.90
2024-02-28T04:10:29.399Z,45.99
2024-02-28T04:11:29.676Z,45.97
2024-02-28T04:12:29.645Z,46.00
2024-02-28T04:13:29.624Z,45.90
2024-02-28T04:14:29.730Z,45.97
2024-02-28T04:15:29.801Z,45.95
2024-02-28T04:16:29.886Z,45.99
2024-02-28T04:17:30.022Z,46.04
2024-02-28T04:18:30.073Z,46.08
2024-02-28T04:19:30.134Z,46.02
2024-02-28T04:20:30.205Z,45.97
2024-02-28T04:21:30.307Z,46.00
2024-02-28T04:22:30.390Z,45.98
2024-02-28T04:23:30.482Z,46.09
2024-02-28T04:24:30.551Z,45.97
2024-02-28T04:25:30.628Z,45.98
2024-02-28T04:26:30.702Z,45.96
2024-02-28T04:27:30.819Z,46.00
2024-02-28T04:28:30.870Z,46.03
2024-02-28T04:29:30.948Z,45.95
2024-02-28T04:30:31.048Z,46.04
2024-02-28T04:31:31.123Z,46.03
2024-02-28T04:32:31.220Z,45.92
2024-02-28T04:33:31.308Z,46.11
2024-02-28T04:34:31.380Z,46.07
2024-02-28T04:35:31.426Z,46.01
2024-02-28T04:36:31.567Z,46.04
2024-02-28T04:37:31.594Z,46.00
2024-02-28T04:38:31.653Z,45.99
2024-02-28T04:39:31.871Z,45.98
2024-02-28T04:40:31.800Z,46.01
2024-02-28T04:41:31.885Z,45.95
2024-02-28T04:42:32.000Z,45.98
2024-02-28T04:43:32.072Z,45.98
2024-02-28T04:44:32.178Z,45.98
2024-02-28T04:45:32.288Z,45.93
2024-02-28T04:46:32.332Z,45.97
2024-02-28T04:47:36.770Z,45.90
2024-02-28T04:48:32.608Z,45.97
2024-02-28T04:49:32.618Z,45.96
2024-02-28T04:50:32.736Z,45.98
2024-02-28T04:51:32.819Z,45.98
2024-02-28T04:52:32.875Z,45.97
2024-02-28T04:53:32.958Z,45.93
2024-02-28T04:54:33.085Z,45.96
2024-02-28T04:55:33.145Z,45.94
2024-02-28T04:56:33.183Z,45.93
2024-02-28T04:57:33.294Z,45.96
2024-02-28T04:58:33.320Z,45.93
2024-02-28T04:59:33.397Z,45.96
2024-02-28T05:00:33.570Z,45.91
2024-02-28T05:01:33.635Z,45.95
2024-02-28T05:02:33.659Z,45.90
2024-02-28T05:03:33.725Z,45.95
2024-02-28T05:04:33.803Z,45.98
2024-02-28T05:05:33.918Z,45.98
2024-02-28T05:06:34.734Z,45.91
2024-02-28T05:07:34.069Z,45.91
2024-02-28T05:08:34.108Z,45.91
2024-02-28T05:09:34.300Z,45.93
2024-02-28T05:10:34.264Z,45.88
2024-02-28T05:11:34.384Z,45.91
2024-02-28T05:12:34.487Z,45.95
2024-02-28T05:13:34.517Z,45.93
2024-02-28T05:14:34.589Z,45.93
2024-02-28T05:15:34.746Z,45.97
2024-02-28T05:16:34.862Z,45.90
2024-02-28T05:17:34.893Z,45.91
2024-02-28T05:18:35.027Z,45.91
2024-02-28T05:19:35.075Z,45.89
2024-02-28T05:20:35.163Z,45.89
2024-02-28T05:21:35.232Z,45.90
2024-02-28T05:22:35.351Z,45.88
2024-02-28T05:23:35.405Z,45.99
2024-02-28T05:24:35.514Z,46.15
2024-02-28T05:25:35.602Z,45.96
2024-02-28T05:26:35.660Z,45.85
2024-02-28T05:27:35.869Z,45.85
2024-02-28T05:28:35.878Z,45.89
2024-02-28T05:29:35.899Z,45.89
2024-02-28T05:30:36.114Z,45.90
2024-02-28T05:31:36.116Z,45.86
2024-02-28T05:32:36.202Z,45.97
2024-02-28T05:33:36.259Z,45.88
2024-02-28T05:34:36.371Z,45.91
2024-02-28T05:35:36.394Z,45.97
2024-02-28T05:36:36.521Z,45.90
2024-02-28T05:37:36.535Z,45.92
2024-02-28T05:38:36.659Z,45.89
2024-02-28T05:39:36.761Z,45.82
2024-02-28T05:40:36.802Z,45.87
2024-02-28T05:41:36.911Z,45.90
2024-02-28T05:42:36.987Z,45.91
2024-02-28T05:43:37.052Z,45.92
2024-02-28T05:44:37.130Z,45.93
2024-02-28T05:45:37.220Z,45.90
2024-02-28T05:46:37.276Z,45.96
2024-02-28T05:47:37.422Z,45.89
2024-02-28T05:48:37.459Z,45.89
2024-02-28T05:49:37.534Z,45.95
2024-02-28T05:50:37.610Z,45.95
2024-02-28T05:51:37.781Z,45.88
2024-02-28T05:52:37.783Z,45.85
2024-02-28T05:53:37.889Z,45.96
2024-02-28T05:54:37.978Z,46.07
2024-02-28T05:55:38.016Z,46.23
2024-02-28T05:56:38.093Z,46.19
2024-02-28T05:57:38.173Z,46.16
2024-02-28T05:58:38.230Z,46.17
2024-02-28T05:59:38.322Z,46.14
2024-02-28T06:00:38.874Z,46.10
2024-02-28T06:01:38.528Z,46.11
2024-02-28T06:02:38.576Z,46.08
2024-02-28T06:03:38.696Z,46.11
2024-02-28T06:04:38.726Z,46.09
2024-02-28T06:05:40.936Z,46.11
2024-02-28T06:06:38.955Z,46.13
2024-02-28T06:07:38.946Z,46.15
2024-02-28T06:08:39.025Z,46.14
2024-02-28T06:09:39.121Z,46.14
2024-02-28T06:10:39.171Z,46.13
2024-02-28T06:11:39.240Z,46.13
2024-02-28T06:12:39.334Z,46.14
2024-02-28T06:13:39.388Z,46.18
2024-02-28T06:14:39.468Z,46.17
2024-02-28T06:15:39.582Z,46.19
2024-02-28T06:16:39.654Z,46.19
2024-02-28T06:17:39.773Z,46.19
2024-02-28T06:18:39.840Z,46.18
2024-02-28T06:19:39.891Z,46.20
2024-02-28T06:20:40.016Z,46.18
2024-02-28T06:21:40.091Z,46.20
2024-02-28T06:22:40.162Z,46.20
2024-02-28T06:23:40.226Z,46.19
2024-02-28T06:24:40.401Z,46.20
2024-02-28T06:25:40.387Z,46.22
2024-02-28T06:26:40.480Z,46.23
2024-02-28T06:27:40.776Z,46.18
2024-02-28T06:28:40.766Z,45.99
2024-02-28T06:29:40.746Z,46.25
2024-02-28T06:30:40.873Z,46.29
2024-02-28T06:31:40.891Z,46.30
2024-02-28T06:32:41.033Z,46.26
2024-02-28T06:33:41.112Z,46.24
2024-02-28T06:34:41.171Z,46.06
2024-02-28T06:35:41.253Z,46.11
2024-02-28T06:36:41.342Z,46.05
2024-02-28T06:37:41.417Z,45.97
2024-02-28T06:38:41.527Z,45.99
2024-02-28T06:39:41.639Z,45.95
2024-02-28T06:40:41.692Z,46.07
2024-02-28T06:41:41.754Z,46.02
2024-02-28T06:42:41.874Z,46.09
2024-02-28T06:43:41.920Z,46.01
2024-02-28T06:44:42.007Z,45.93
2024-02-28T06:45:42.145Z,45.94
2024-02-28T06:46:42.153Z,45.92
2024-02-28T06:47:42.262Z,46.03
2024-02-28T06:48:42.379Z,45.89
2024-02-28T06:49:42.387Z,45.89
2024-02-28T06:50:42.491Z,45.94
2024-02-28T06:51:42.590Z,46.03
2024-02-28T06:52:42.635Z,46.16
2024-02-28T06:53:42.719Z,46.01
2024-02-28T06:54:42.821Z,45.90
2024-02-28T06:55:42.881Z,45.88
2024-02-28T06:56:42.981Z,45.90
2024-02-28T06:57:43.042Z,46.25
2024-02-28T06:58:43.100Z,46.05
2024-02-28T06:59:43.190Z,45.95
2024-02-28T07:00:43.323Z,45.89
2024-02-28T07:01:43.409Z,45.87
2024-02-28T07:02:43.491Z,45.94
2024-02-28T07:03:43.648Z,46.14
2024-02-28T07:04:43.626Z,46.29
2024-02-28T07:05:43.723Z,46.32
2024-02-28T07:06:43.876Z,46.31
2024-02-28T07:07:43.889Z,46.30
2024-02-28T07:08:43.976Z,46.29
2024-02-28T07:09:44.112Z,46.29
2024-02-28T07:10:44.245Z,46.32
2024-02-28T07:11:44.240Z,46.30
2024-02-28T07:12:44.375Z,46.28
2024-02-28T07:13:44.391Z,46.27
2024-02-28T07:14:44.487Z,46.27
2024-02-28T07:15:44.560Z,46.24
2024-02-28T07:16:44.621Z,46.04
2024-02-28T07:17:44.712Z,45.87
2024-02-28T07:18:44.836Z,45.83
2024-02-28T07:19:44.860Z,45.82
2024-02-28T07:20:45.070Z,45.81
2024-02-28T07:21:45.162Z,45.84
2024-02-28T07:22:45.103Z,45.95
2024-02-28T07:23:45.166Z,45.87
2024-02-28T07:24:45.275Z,45.90
2024-02-28T07:25:45.332Z,45.93
2024-02-28T07:26:45.427Z,45.94
2024-02-28T07:27:45.569Z,45.93
2024-02-28T07:28:45.583Z,45.97
2024-02-28T07:29:45.684Z,46.19
2024-02-28T07:30:45.800Z,46.05
2024-02-28T07:31:45.874Z,46.27
2024-02-28T07:32:45.999Z,46.28
2024-02-28T07:33:46.064Z,46.16
2024-02-28T07:34:46.146Z,46.06
2024-02-28T07:35:46.238Z,46.09
2024-02-28T07:36:46.393Z,46.09
2024-02-28T07:37:46.422Z,46.19
2024-02-28T07:38:46.521Z,46.15
2024-02-28T07:39:46.620Z,46.14
2024-02-28T07:40:46.696Z,45.94
2024-02-28T07:41:46.774Z,46.24
2024-02-28T07:42:46.871Z,46.30
2024-02-28T07:43:46.932Z,46.33
2024-02-28T07:44:47.016Z,46.29
2024-02-28T07:45:47.131Z,46.27
2024-02-28T07:46:47.185Z,46.27
2024-02-28T07:47:47.288Z,46.15
2024-02-28T07:48:47.373Z,46.03
2024-02-28T07:49:47.487Z,46.13
2024-02-28T07:50:47.508Z,46.04
2024-02-28T07:51:47.729Z,45.99
2024-02-28T07:52:47.690Z,46.16
2024-02-28T07:53:47.780Z,46.21
2024-02-28T07:54:47.861Z,46.09
2024-02-28T07:55:47.942Z,46.18
2024-02-28T07:56:47.978Z,46.10
2024-02-28T07:57:48.081Z,45.99
2024-02-28T07:58:48.160Z,46.06
2024-02-28T07:59:48.248Z,46.00
2024-02-28T08:00:48.427Z,46.00
2024-02-28T08:01:48.612Z,46.09
2024-02-28T08:02:48.584Z,46.18
2024-02-28T08:03:48.589Z,46.15
2024-02-28T08:04:48.663Z,46.17
2024-02-28T08:05:48.737Z,46.15
2024-02-28T08:06:48.917Z,46.11
2024-02-28T08:07:49.059Z,46.05
2024-02-28T08:08:48.975Z,46.03
2024-02-28T08:09:49.176Z,46.05
2024-02-28T08:10:49.201Z,46.00
2024-02-28T08:11:49.280Z,45.95
2024-02-28T08:12:49.345Z,45.96
2024-02-28T08:13:49.405Z,45.94
2024-02-28T08:14:49.493Z,45.93
2024-02-28T08:15:49.627Z,45.98
2024-02-28T08:16:49.647Z,45.95
2024-02-28T08:17:49.797Z,45.97
2024-02-28T08:18:49.945Z,45.93
2024-02-28T08:19:50.012Z,45.99
2024-02-28T08:20:49.978Z,46.03
2024-02-28T08:21:50.059Z,46.06
2024-02-28T08:22:50.125Z,46.06
2024-02-28T08:23:50.210Z,45.97
2024-02-28T08:24:50.331Z,45.98
2024-02-28T08:25:50.371Z,46.03
2024-02-28T08:26:50.437Z,46.03
2024-02-28T08:27:50.546Z,45.96
2024-02-28T08:28:50.614Z,46.09
2024-02-28T08:29:50.680Z,45.99
2024-02-28T08:30:50.802Z,45.93
2024-02-28T08:31:50.881Z,45.81
2024-02-28T08:32:50.969Z,45.78
2024-02-28T08:33:51.078Z,45.88
2024-02-28T08:34:51.091Z,45.99
2024-02-28T08:35:51.186Z,46.13
2024-02-28T08:36:51.279Z,46.11
2024-02-28T08:37:51.322Z,46.14
2024-02-28T08:38:51.413Z,46.31
2024-02-28T08:39:51.517Z,46.28
2024-02-28T08:40:51.592Z,46.01
2024-02-28T08:41:51.703Z,46.09
2024-02-28T08:42:51.798Z,46.03
2024-02-28T08:43:51.826Z,46.09
2024-02-28T08:44:51.904Z,46.03
2024-02-28T08:45:52.007Z,46.11
2024-02-28T08:46:52.042Z,45.92
2024-02-28T08:47:52.150Z,45.93
2024-02-28T08:48:52.207Z,46.07
2024-02-28T08:49:52.267Z,45.97
2024-02-28T08:50:52.369Z,45.85
2024-02-28T08:51:52.554Z,45.84
2024-02-28T08:52:52.550Z,45.90
2024-02-28T08:53:52.658Z,45.96
2024-02-28T08:54:52.772Z,45.90
2024-02-28T08:55:52.797Z,45.84
2024-02-28T08:56:56.988Z,45.87
2024-02-28T08:57:53.042Z,45.90
2024-02-28T08:58:53.122Z,45.93
2024-02-28T08:59:54.090Z,45.95
2024-02-28T09:00:53.330Z,45.97
2024-02-28T09:01:53.364Z,45.89
2024-02-28T09:02:53.404Z,45.83
2024-02-28T09:04:03.457Z,45.86
2024-02-28T09:04:53.563Z,45.91
2024-02-28T09:05:53.642Z,45.89
2024-02-28T09:06:56.582Z,45.84
2024-02-28T09:07:53.789Z,45.91
2024-02-28T09:08:53.861Z,45.81
2024-02-28T09:09:54.006Z,45.84
2024-02-28T09:10:54.043Z,45.97
2024-02-28T09:11:54.137Z,45.89
2024-02-28T09:12:54.313Z,46.30
2024-02-28T09:13:54.254Z,46.33
2024-02-28T09:14:54.365Z,46.25
2024-02-28T09:15:55.788Z,46.05
2024-02-28T09:16:54.493Z,46.09
2024-02-28T09:17:54.591Z,46.24
2024-02-28T09:18:54.741Z,46.24
2024-02-28T09:19:54.750Z,46.24
2024-02-28T09:20:54.866Z,46.22
2024-02-28T09:21:55.005Z,46.22
2024-02-28T09:22:55.017Z,46.24
2024-02-28T09:23:55.096Z,46.22
2024-02-28T09:24:55.356Z,46.20
2024-02-28T09:25:55.275Z,46.13
2024-02-28T09:26:55.353Z,46.03
2024-02-28T09:27:55.610Z,45.82
2024-02-28T09:28:55.500Z,45.97
2024-02-28T09:29:55.570Z,45.86
2024-02-28T09:30:55.693Z,45.88
2024-02-28T09:31:55.743Z,45.95
2024-02-28T09:32:55.988Z,45.77
2024-02-28T09:33:56.033Z,45.83
2024-02-28T09:34:55.987Z,45.81
2024-02-28T09:35:56.081Z,45.77
2024-02-28T09:36:56.171Z,45.77
2024-02-28T09:37:56.225Z,45.79
2024-02-28T09:38:56.333Z,45.83
2024-02-28T09:39:56.525Z,45.90
2024-02-28T09:40:56.454Z,45.79
2024-02-28T09:41:56.523Z,45.93
2024-02-28T09:42:59.161Z,46.06
2024-02-28T09:43:56.674Z,45.95
2024-02-28T09:44:56.776Z,45.86
2024-02-28T09:45:56.928Z,45.84
2024-02-28T09:46:56.919Z,45.83
2024-02-28T09:47:57.015Z,45.90
2024-02-28T09:48:57.148Z,45.82
2024-02-28T09:49:57.218Z,45.79
2024-02-28T09:50:57.287Z,45.66
2024-02-28T09:51:57.385Z,45.94
2024-02-28T09:53:06.092Z,45.80
2024-02-28T09:53:57.526Z,45.87
2024-02-28T09:54:57.670Z,45.87
2024-02-28T09:55:57.702Z,45.84
2024-02-28T09:56:57.787Z,45.85
2024-02-28T09:57:57.934Z,45.82
2024-02-28T09:58:57.917Z,45.76
2024-02-28T09:59:58.291Z,45.88
2024-02-28T10:00:58.260Z,45.85
2024-02-28T10:01:58.287Z,45.82
2024-02-28T10:02:58.273Z,45.82
2024-02-28T10:03:58.431Z,45.83
2024-02-28T10:04:58.420Z,46.07
2024-02-28T10:05:59.630Z,46.19
2024-02-28T10:06:58.740Z,45.92
2024-02-28T10:07:58.694Z,45.76
2024-02-28T10:08:58.776Z,45.80
2024-02-28T10:09:58.868Z,45.86
2024-02-28T10:10:58.971Z,45.78
2024-02-28T10:11:59.023Z,45.81
2024-02-28T10:12:59.212Z,45.87
2024-02-28T10:13:59.211Z,45.85
2024-02-28T10:14:59.295Z,45.81
2024-02-28T10:15:59.411Z,45.88
2024-02-28T10:16:59.467Z,45.89
2024-02-28T10:17:59.573Z,45.90
2024-02-28T10:18:59.646Z,45.87
2024-02-28T10:19:59.642Z,45.93
2024-02-28T10:20:59.709Z,45.74
2024-02-28T10:21:59.970Z,45.89
2024-02-28T10:22:59.861Z,45.82
2024-02-28T10:24:02.687Z,45.80
2024-02-28T10:25:00.131Z,45.85
2024-02-28T10:26:00.109Z,45.87
2024-02-28T10:27:00.220Z,45.94
2024-02-28T10:28:00.335Z,46.08
2024-02-28T10:29:00.349Z,45.92
2024-02-28T10:30:00.526Z,45.85
2024-02-28T10:31:00.598Z,45.80
2024-02-28T10:32:00.585Z,45.80
2024-02-28T10:33:00.733Z,46.00
2024-02-28T10:34:00.780Z,46.14
2024-02-28T10:35:00.837Z,46.19
2024-02-28T10:36:00.942Z,46.17
2024-02-28T10:37:01.092Z,46.16
2024-02-28T10:38:01.075Z,46.14
2024-02-28T10:39:01.168Z,46.16
2024-02-28T10:40:01.311Z,46.18
2024-02-28T10:41:01.355Z,46.10
2024-02-28T10:42:01.544Z,46.09
2024-02-28T10:43:01.503Z,45.94
2024-02-28T10:44:01.557Z,45.82
2024-02-28T10:45:11.023Z,45.70
2024-02-28T10:47:01.891Z,45.90
2024-02-28T10:48:01.919Z,45.92
2024-02-28T10:49:02.031Z,45.93
2024-02-28T10:50:02.050Z,45.84
2024-02-28T10:51:02.138Z,45.84
2024-02-28T10:52:02.252Z,45.91
2024-02-28T10:53:02.333Z,45.82
2024-02-28T10:54:02.377Z,45.83
2024-02-28T10:55:02.567Z,45.91
2024-02-28T10:56:02.569Z,45.88
2024-02-28T10:57:02.624Z,45.82
2024-02-28T10:58:02.722Z,45.73
2024-02-28T10:59:02.806Z,45.89
2024-02-28T11:00:02.868Z,45.77
2024-02-28T11:01:03.076Z,45.74
2024-02-28T11:02:03.015Z,46.02
2024-02-28T11:03:03.091Z,46.08
2024-02-28T11:04:03.364Z,45.95
2024-02-28T11:05:03.317Z,45.87
2024-02-28T11:06:03.327Z,45.94
2024-02-28T11:07:03.460Z,46.01
2024-02-28T11:08:03.513Z,46.01
2024-02-28T11:09:03.592Z,45.94
2024-02-28T11:10:03.776Z,45.96
2024-02-28T11:11:03.789Z,46.04
2024-02-28T11:12:03.888Z,45.93
2024-02-28T11:13:03.987Z,46.06
2024-02-28T11:14:04.048Z,46.00
2024-02-28T11:15:04.127Z,45.97
2024-02-28T11:16:04.264Z,46.13
2024-02-28T11:17:04.335Z,46.17
2024-02-28T11:18:04.445Z,46.22
2024-02-28T11:19:04.552Z,46.23
2024-02-28T11:20:04.559Z,46.19
2024-02-28T11:21:04.666Z,46.18
2024-02-28T11:22:04.963Z,46.18
2024-02-28T11:23:04.773Z,46.16
2024-02-28T11:24:05.048Z,46.23
2024-02-28T11:25:05.000Z,46.22
2024-02-28T11:26:05.067Z,45.95
2024-02-28T11:27:05.231Z,45.90
2024-02-28T11:28:05.275Z,45.89
2024-02-28T11:29:05.284Z,46.04
2024-02-28T11:30:05.380Z,45.99
2024-02-28T11:31:05.457Z,45.90
2024-02-28T11:32:05.602Z,45.98
2024-02-28T11:33:06.530Z,45.95
2024-02-28T11:34:05.737Z,45.88
2024-02-28T11:35:05.774Z,45.93
2024-02-28T11:36:05.856Z,45.85
2024-02-28T11:37:06.036Z,45.90
2024-02-28T11:38:06.000Z,45.93
2024-02-28T11:39:06.077Z,45.83
2024-02-28T11:40:06.275Z,45.84
2024-02-28T11:41:06.279Z,46.22
2024-02-28T11:42:06.336Z,46.22
2024-02-28T11:43:06.450Z,46.22
2024-02-28T11:44:06.496Z,46.30
2024-02-28T11:45:06.576Z,46.26
2024-02-28T11:46:06.669Z,46.18
2024-02-28T11:47:06.858Z,46.27
2024-02-28T11:48:06.861Z,46.19
2024-02-28T11:49:06.892Z,46.13
2024-02-28T11:50:09.457Z,46.19
2024-02-28T11:51:07.035Z,46.30
2024-02-28T11:52:07.198Z,46.32
2024-02-28T11:53:07.198Z,46.02
2024-02-28T11:54:07.282Z,46.12
2024-02-28T11:55:07.379Z,46.17
2024-02-28T11:56:07.495Z,46.11
2024-02-28T11:57:07.550Z,46.11
2024-02-28T11:58:07.658Z,46.05
2024-02-28T11:59:07.753Z,46.22
2024-02-28T12:00:07.815Z,46.09
2024-02-28T12:01:07.902Z,46.07
2024-02-28T12:02:07.951Z,45.92
2024-02-28T12:03:08.047Z,46.04
2024-02-28T12:04:08.423Z,46.02
2024-02-28T12:05:08.262Z,46.14
2024-02-28T12:06:08.323Z,46.07
2024-02-28T12:07:08.403Z,46.07
2024-02-28T12:08:08.479Z,46.08
2024-02-28T12:09:08.592Z,46.05
2024-02-28T12:10:08.671Z,46.17
2024-02-28T12:11:08.901Z,46.19
2024-02-28T12:12:08.844Z,46.08
2024-02-28T12:13:08.903Z,46.03
2024-02-28T12:14:08.957Z,46.10
2024-02-28T12:15:09.049Z,46.28
2024-02-28T12:16:09.145Z,46.11
2024-02-28T12:17:09.166Z,46.08
2024-02-28T12:18:09.355Z,46.00
2024-02-28T12:19:09.372Z,46.04
2024-02-28T12:20:09.414Z,46.10
2024-02-28T12:21:09.547Z,46.11
2024-02-28T12:22:09.617Z,46.07
2024-02-28T12:23:09.813Z,46.13
2024-02-28T12:24:09.791Z,46.14
2024-02-28T12:25:09.876Z,46.15
2024-02-28T12:26:09.942Z,46.16
2024-02-28T12:27:10.059Z,46.08
2024-02-28T12:28:10.120Z,46.11
2024-02-28T12:29:10.195Z,46.26
2024-02-28T12:30:10.266Z,46.23
2024-02-28T12:31:10.393Z,46.19
2024-02-28T12:32:10.466Z,46.23
2024-02-28T12:33:10.615Z,46.09
2024-02-28T12:34:10.642Z,46.04
2024-02-28T12:35:10.693Z,45.90
2024-02-28T12:36:10.795Z,46.01
2024-02-28T12:37:10.855Z,45.94
2024-02-28T12:38:11.001Z,46.04
2024-02-28T12:39:10.995Z,45.92
2024-02-28T12:40:11.073Z,45.97
2024-02-28T12:41:11.173Z,45.79
2024-02-28T12:42:11.253Z,45.99
2024-02-28T12:43:11.359Z,45.90
2024-02-28T12:44:11.391Z,45.87
2024-02-28T12:45:11.497Z,46.06
2024-02-28T12:46:11.606Z,46.30
2024-02-28T12:47:11.728Z,46.30
2024-02-28T12:48:11.831Z,46.30
2024-02-28T12:49:11.849Z,46.31
2024-02-28T12:50:11.919Z,46.30
2024-02-28T12:51:12.033Z,46.29
2024-02-28T12:52:12.145Z,46.13
2024-02-28T12:53:12.186Z,45.92
2024-02-28T12:54:12.246Z,45.93